الصفحة الرئيسية
METAR-TAF:

METAR-TAF

مطار :

Antsiranana, مدغشقر

دائرة عرض: 12-21S, خط طول: 049-18E, ارتفاع: 114 متر

مراقبة الطقس الحالي

تاريخ ووقت الإصدار 28 دقيقة قبل الساعة 09:00UTC
ريح 18 عقدة من الجنوب الشرقي
درجة الحرارة 32°درجة مئوية
الرطوبة 43%
ضغط 1013 hPa
الرؤية 10 كم أو أكثر
غيوم قليلة على ارتفاع 2000 قدم
غيوم متفرقة على ارتفاع 23000 قدم

METAR: FMNA 220900Z 14018KT 9999 FEW020 SCT230 32/18 Q1013

زمن: 12:28 (09:28 UTC)

توقعات

تاريخ ووقت الإصدار 4ساعات و 28 دقيقة قبل الساعة 05:00UTC
التوقعات صالحة من22 الساعة 06 UTC إلى 23 الساعة 06 UTC
ريح 16 عقدة من الجنوب الشرقي تتزايد حتى 30 عقدة
الرؤية 10 كم أو أكثر
غيوم قليلة على ارتفاع 2000 قدم
أصبح
من 22 الساعة 10 UTC إلى 22 الساعة 13 UTC
غيوم متفرقة على ارتفاع 2000 قدم, مزنة ركامية.
نظرية الاحتمالات 30% :
مؤقت
من 22 الساعة 18 UTC إلى 22 الساعة 24 UTC
عاصفة رعدية

TAF: FMNA 220500Z 2206/2306 14016G30KT 9999 FEW020 BECMG 2210/2213 SCT020CB PROB30 TEMPO 2218/2224 TS

أرصاد الطقس والتوقعات من أكثر من 4000 مطار (تقارير الطقس للمطار METAR والتنبؤ بالطقس بالمطارTAF).

المحطات المتاحة هي النقط الصفراء والحمراء على الخريطة.

حرك المؤشر فوق النقطة لمعرفة اسم المحطة.

ثم انقر لمعرفة أرصاد وتوقعات الطقس.

لتغيير الخارطة: اضغط على الأزرار الخضراء مع رمز الصليب الأسود للتكبير. على الزر الأخضر مع شرطة للتصغير، أو على الأسهم الخضراء للخرائط المجاورة.


METAR-TAF: